createdAt,value
2019-02-02T00:00:14.489Z,2.43
2019-02-02T00:01:14.481Z,2.43
2019-02-02T00:02:14.465Z,2.35
2019-02-02T00:03:14.456Z,2.42
2019-02-02T00:04:17.374Z,2.35
2019-02-02T00:05:14.585Z,2.42
2019-02-02T00:06:14.427Z,2.35
2019-02-02T00:07:14.412Z,2.36
2019-02-02T00:08:14.399Z,2.36
2019-02-02T00:09:14.390Z,2.42
2019-02-02T00:10:14.375Z,2.39
2019-02-02T00:11:14.368Z,2.46
2019-02-02T00:12:14.354Z,2.39
2019-02-02T00:13:14.346Z,2.28
2019-02-02T00:14:14.331Z,2.31
2019-02-02T00:15:14.323Z,2.31
2019-02-02T00:16:14.309Z,2.35
2019-02-02T00:17:14.307Z,2.31
2019-02-02T00:18:14.288Z,2.35
2019-02-02T00:19:14.279Z,2.28
2019-02-02T00:20:14.265Z,2.30
2019-02-02T00:21:14.256Z,2.31
2019-02-02T00:22:14.242Z,2.36
2019-02-02T00:23:14.233Z,2.24
2019-02-02T00:24:14.221Z,2.30
2019-02-02T00:25:14.213Z,2.30
2019-02-02T00:26:14.198Z,2.46
2019-02-02T00:27:14.188Z,2.36
2019-02-02T00:28:14.175Z,2.52
2019-02-02T00:29:14.166Z,2.43
2019-02-02T00:30:14.155Z,2.53
2019-02-02T00:31:14.145Z,2.52
2019-02-02T00:32:14.130Z,2.56
2019-02-02T00:33:14.122Z,2.63
2019-02-02T00:34:14.108Z,2.48
2019-02-02T00:35:14.100Z,2.42
2019-02-02T00:36:14.088Z,2.39
2019-02-02T00:37:14.090Z,2.38
2019-02-02T00:38:14.063Z,2.36
2019-02-02T00:39:14.056Z,2.35
2019-02-02T00:40:14.043Z,2.34
2019-02-02T00:41:14.033Z,2.36
2019-02-02T00:42:14.030Z,2.36
2019-02-02T00:43:14.011Z,2.30
2019-02-02T00:44:14.055Z,2.31
2019-02-02T00:45:13.989Z,2.20
2019-02-02T00:46:13.978Z,2.24
2019-02-02T00:47:13.972Z,2.18
2019-02-02T00:48:13.953Z,2.21
2019-02-02T00:49:13.944Z,2.25
2019-02-02T00:50:13.929Z,2.25
2019-02-02T00:51:13.929Z,2.31
2019-02-02T00:52:13.907Z,2.23
2019-02-02T00:53:13.900Z,2.39
2019-02-02T00:54:13.885Z,2.25
2019-02-02T00:55:13.875Z,2.31
2019-02-02T00:56:13.862Z,2.41
2019-02-02T00:57:13.853Z,2.43
2019-02-02T00:58:13.839Z,2.52
2019-02-02T00:59:13.830Z,2.48
2019-02-02T01:00:13.818Z,2.45
2019-02-02T01:01:13.808Z,2.45
2019-02-02T01:02:13.794Z,2.36
2019-02-02T01:03:13.785Z,2.41
2019-02-02T01:04:13.772Z,2.45
2019-02-02T01:05:13.764Z,2.36
2019-02-02T01:06:13.749Z,2.35
2019-02-02T01:07:13.741Z,2.39
2019-02-02T01:08:13.727Z,2.30
2019-02-02T01:09:13.719Z,2.25
2019-02-02T01:10:13.704Z,2.28
2019-02-02T01:11:13.696Z,2.31
2019-02-02T01:12:13.682Z,2.21
2019-02-02T01:13:13.674Z,2.25
2019-02-02T01:14:13.661Z,2.25
2019-02-02T01:15:13.651Z,2.21
2019-02-02T01:16:13.643Z,2.20
2019-02-02T01:17:13.629Z,2.24
2019-02-02T01:18:13.614Z,2.24
2019-02-02T01:19:13.606Z,2.20
2019-02-02T01:20:13.592Z,2.35
2019-02-02T01:21:13.584Z,2.38
2019-02-02T01:22:13.570Z,2.39
2019-02-02T01:23:13.560Z,2.46
2019-02-02T01:24:13.549Z,2.52
2019-02-02T01:25:13.538Z,2.49
2019-02-02T01:26:13.523Z,2.45
2019-02-02T01:27:13.515Z,2.36
2019-02-02T01:28:13.501Z,2.36
2019-02-02T01:29:13.492Z,2.41
2019-02-02T01:30:13.478Z,2.56
2019-02-02T01:31:13.470Z,2.52
2019-02-02T01:32:14.009Z,2.41
2019-02-02T01:33:13.448Z,2.54
2019-02-02T01:34:13.442Z,2.49
2019-02-02T01:35:13.424Z,2.42
2019-02-02T01:36:13.411Z,2.46
2019-02-02T01:37:13.403Z,2.41
2019-02-02T01:38:13.388Z,2.41
2019-02-02T01:39:13.379Z,2.43
2019-02-02T01:40:13.366Z,2.42
2019-02-02T01:41:13.358Z,2.35
2019-02-02T01:42:13.343Z,2.41
2019-02-02T01:43:13.338Z,2.53
2019-02-02T01:44:13.322Z,2.53
2019-02-02T01:45:13.313Z,2.39
2019-02-02T01:46:13.299Z,2.31
2019-02-02T01:47:13.290Z,2.35
2019-02-02T01:48:13.281Z,2.30
2019-02-02T01:49:13.268Z,2.28
2019-02-02T01:50:13.255Z,2.30
2019-02-02T01:51:13.246Z,2.25
2019-02-02T01:52:13.233Z,2.27
2019-02-02T01:53:13.224Z,2.30
2019-02-02T01:54:13.210Z,2.31
2019-02-02T01:55:13.201Z,2.25
2019-02-02T01:56:13.188Z,2.39
2019-02-02T01:57:13.180Z,2.41
2019-02-02T01:58:16.848Z,2.43
2019-02-02T01:59:13.156Z,2.52
2019-02-02T02:00:13.143Z,2.38
2019-02-02T02:01:13.134Z,2.39
2019-02-02T02:02:13.121Z,2.45
2019-02-02T02:03:13.123Z,2.36
2019-02-02T02:04:13.100Z,2.25
2019-02-02T02:05:13.091Z,2.30
2019-02-02T02:06:13.076Z,2.31
2019-02-02T02:07:13.067Z,2.28
2019-02-02T02:08:13.054Z,2.31
2019-02-02T02:09:13.046Z,2.31
2019-02-02T02:10:13.033Z,2.49
2019-02-02T02:11:13.023Z,2.41
2019-02-02T02:12:13.010Z,2.34
2019-02-02T02:13:13.001Z,2.21
2019-02-02T02:14:12.987Z,2.28
2019-02-02T02:15:12.979Z,2.30
2019-02-02T02:16:12.966Z,2.31
2019-02-02T02:17:12.957Z,2.28
2019-02-02T02:18:12.943Z,2.28
2019-02-02T02:19:12.934Z,2.28
2019-02-02T02:20:12.921Z,2.25
2019-02-02T02:21:12.913Z,2.35
2019-02-02T02:22:12.899Z,2.34
2019-02-02T02:23:12.891Z,2.24
2019-02-02T02:24:12.877Z,2.28
2019-02-02T02:25:12.869Z,2.27
2019-02-02T02:26:12.864Z,2.38
2019-02-02T02:27:12.851Z,2.42
2019-02-02T02:28:12.833Z,2.43
2019-02-02T02:29:12.824Z,2.38
2019-02-02T02:30:12.814Z,2.35
2019-02-02T02:31:12.804Z,2.30
2019-02-02T02:32:12.789Z,2.24
2019-02-02T02:33:12.780Z,2.36
2019-02-02T02:34:12.766Z,2.28
2019-02-02T02:35:12.758Z,2.21
2019-02-02T02:36:12.746Z,2.24
2019-02-02T02:37:12.736Z,2.14
2019-02-02T02:38:12.724Z,2.12
2019-02-02T02:39:12.717Z,2.12
2019-02-02T02:40:12.701Z,2.16
2019-02-02T02:41:12.695Z,2.16
2019-02-02T02:42:12.677Z,2.12
2019-02-02T02:43:12.671Z,2.16
2019-02-02T02:44:12.656Z,2.10
2019-02-02T02:45:12.646Z,2.16
2019-02-02T02:46:12.632Z,2.17
2019-02-02T02:47:12.627Z,2.14
2019-02-02T02:48:12.610Z,2.23
2019-02-02T02:49:12.601Z,2.25
2019-02-02T02:50:12.587Z,2.28
2019-02-02T02:51:12.579Z,2.27
2019-02-02T02:52:12.565Z,2.28
2019-02-02T02:53:12.557Z,2.24
2019-02-02T02:54:12.544Z,2.28
2019-02-02T02:55:12.533Z,2.35
2019-02-02T02:56:12.530Z,2.35
2019-02-02T02:57:12.512Z,2.35
2019-02-02T02:58:12.497Z,2.41
2019-02-02T02:59:12.489Z,2.45
2019-02-02T03:00:12.475Z,2.35
2019-02-02T03:01:12.466Z,2.48
2019-02-02T03:02:12.452Z,2.54
2019-02-02T03:03:12.444Z,2.54
2019-02-02T03:04:12.430Z,2.53
2019-02-02T03:05:12.423Z,2.49
2019-02-02T03:06:12.408Z,2.48
2019-02-02T03:07:12.407Z,2.52
2019-02-02T03:08:12.386Z,2.53
2019-02-02T03:09:12.379Z,2.36
2019-02-02T03:10:12.456Z,2.53
2019-02-02T03:11:12.356Z,2.46
2019-02-02T03:12:12.342Z,2.48
2019-02-02T03:13:12.333Z,2.39
2019-02-02T03:14:12.319Z,2.52
2019-02-02T03:15:12.314Z,2.45
2019-02-02T03:16:12.301Z,2.41
2019-02-02T03:17:12.288Z,2.49
2019-02-02T03:18:12.280Z,2.48
2019-02-02T03:19:12.271Z,2.57
2019-02-02T03:20:12.269Z,2.53
2019-02-02T03:21:12.246Z,2.48
2019-02-02T03:22:12.240Z,2.49
2019-02-02T03:23:12.225Z,2.56
2019-02-02T03:24:12.218Z,2.53
2019-02-02T03:25:12.218Z,2.60
2019-02-02T03:26:12.186Z,2.57
2019-02-02T03:27:12.178Z,2.61
2019-02-02T03:28:12.165Z,2.64
2019-02-02T03:29:12.159Z,2.60
2019-02-02T03:30:12.144Z,2.64
2019-02-02T03:31:12.141Z,2.66
2019-02-02T03:32:12.125Z,2.74
2019-02-02T03:33:12.123Z,2.67
2019-02-02T03:34:12.102Z,2.71
2019-02-02T03:35:12.088Z,2.61
2019-02-02T03:36:12.083Z,2.72
2019-02-02T03:37:12.067Z,2.72
2019-02-02T03:38:12.058Z,2.75
2019-02-02T03:39:12.046Z,2.85
2019-02-02T03:40:12.041Z,2.85
2019-02-02T03:41:12.328Z,2.87
2019-02-02T03:42:12.015Z,2.71
2019-02-02T03:43:12.005Z,2.81
2019-02-02T03:44:11.995Z,2.89
2019-02-02T03:45:11.980Z,2.82
2019-02-02T03:46:11.972Z,2.89
2019-02-02T03:47:11.972Z,2.92
2019-02-02T03:48:11.958Z,2.84
2019-02-02T03:49:11.941Z,2.85
2019-02-02T03:50:11.929Z,2.89
2019-02-02T03:51:11.925Z,2.93
2019-02-02T03:52:11.919Z,2.89
2019-02-02T03:53:11.894Z,2.92
2019-02-02T03:54:11.888Z,2.85
2019-02-02T03:55:11.874Z,2.79
2019-02-02T03:56:11.865Z,2.85
2019-02-02T03:57:11.851Z,2.75
2019-02-02T03:58:11.843Z,2.82
2019-02-02T03:59:11.830Z,2.81
2019-02-02T04:00:11.824Z,2.71
2019-02-02T04:01:11.809Z,2.87
2019-02-02T04:02:11.800Z,2.72
2019-02-02T04:03:11.787Z,2.82
2019-02-02T04:04:11.780Z,2.81
2019-02-02T04:05:11.767Z,2.92
2019-02-02T04:06:11.758Z,2.87
2019-02-02T04:07:11.746Z,2.74
2019-02-02T04:08:11.738Z,2.85
2019-02-02T04:09:11.723Z,2.82
2019-02-02T04:10:11.715Z,2.84
2019-02-02T04:11:11.702Z,2.75
2019-02-02T04:12:11.693Z,2.81
2019-02-02T04:13:11.686Z,2.78
2019-02-02T04:14:11.671Z,2.74
2019-02-02T04:15:11.660Z,2.77
2019-02-02T04:16:11.652Z,2.74
2019-02-02T04:17:11.638Z,2.72
2019-02-02T04:18:11.628Z,2.78
2019-02-02T04:19:11.616Z,2.79
2019-02-02T04:20:11.611Z,2.78
2019-02-02T04:21:11.595Z,2.87
2019-02-02T04:22:11.586Z,2.87
2019-02-02T04:23:11.598Z,2.87
2019-02-02T04:24:11.565Z,2.90
2019-02-02T04:25:11.552Z,2.92
2019-02-02T04:26:11.543Z,2.81
2019-02-02T04:27:11.530Z,2.84
2019-02-02T04:28:11.522Z,2.85
2019-02-02T04:29:17.789Z,2.84
2019-02-02T04:30:11.500Z,2.74
2019-02-02T04:31:11.488Z,2.72
2019-02-02T04:32:11.482Z,2.81
2019-02-02T04:33:11.469Z,2.77
2019-02-02T04:34:11.458Z,2.67
2019-02-02T04:35:11.446Z,2.67
2019-02-02T04:36:11.437Z,2.64
2019-02-02T04:37:11.425Z,2.66
2019-02-02T04:38:11.415Z,2.75
2019-02-02T04:39:11.403Z,2.78
2019-02-02T04:40:11.395Z,2.75
2019-02-02T04:41:11.384Z,2.75
2019-02-02T04:42:11.373Z,2.89
2019-02-02T04:43:11.366Z,2.84
2019-02-02T04:44:11.368Z,2.82
2019-02-02T04:45:11.339Z,3.00
2019-02-02T04:46:11.333Z,2.90
2019-02-02T04:47:11.318Z,3.00
2019-02-02T04:48:11.312Z,2.85
2019-02-02T04:49:11.307Z,2.87
2019-02-02T04:50:11.289Z,2.90
2019-02-02T04:51:11.275Z,2.78
2019-02-02T04:52:11.268Z,2.84
2019-02-02T04:53:11.255Z,2.78
2019-02-02T04:54:11.245Z,2.74
2019-02-02T04:55:11.233Z,2.84
2019-02-02T04:56:11.225Z,2.92
2019-02-02T04:57:11.212Z,3.06
2019-02-02T04:58:11.203Z,3.02
2019-02-02T04:59:11.190Z,3.08
2019-02-02T05:00:11.183Z,3.15
2019-02-02T05:01:11.177Z,3.21
2019-02-02T05:02:11.160Z,3.15
2019-02-02T05:03:11.148Z,3.18
2019-02-02T05:04:11.140Z,3.20
2019-02-02T05:05:11.128Z,3.18
2019-02-02T05:06:11.119Z,3.24
2019-02-02T05:07:11.106Z,3.29
2019-02-02T05:08:11.098Z,3.23
2019-02-02T05:09:11.122Z,3.24
2019-02-02T05:10:11.083Z,3.31
2019-02-02T05:11:11.064Z,3.29
2019-02-02T05:12:11.056Z,3.33
2019-02-02T05:13:11.044Z,3.32
2019-02-02T05:14:11.035Z,3.29
2019-02-02T05:15:11.023Z,3.33
2019-02-02T05:16:11.017Z,3.40
2019-02-02T05:17:11.003Z,3.29
2019-02-02T05:18:10.994Z,3.35
2019-02-02T05:19:10.982Z,3.31
2019-02-02T05:20:10.992Z,3.42
2019-02-02T05:21:10.963Z,3.40
2019-02-02T05:22:10.953Z,3.42
2019-02-02T05:23:10.941Z,3.43
2019-02-02T05:24:10.936Z,3.45
2019-02-02T05:25:10.922Z,3.55
2019-02-02T05:26:10.912Z,3.43
2019-02-02T05:27:10.900Z,3.55
2019-02-02T05:28:10.892Z,3.45
2019-02-02T05:29:10.880Z,3.47
2019-02-02T05:30:10.872Z,3.43
2019-02-02T05:31:10.860Z,3.47
2019-02-02T05:32:10.852Z,3.42
2019-02-02T05:33:10.840Z,3.40
2019-02-02T05:34:10.831Z,3.33
2019-02-02T05:35:10.830Z,3.31
2019-02-02T05:36:10.813Z,3.36
2019-02-02T05:37:10.799Z,3.23
2019-02-02T05:38:10.791Z,3.26
2019-02-02T05:39:10.781Z,3.26
2019-02-02T05:40:10.772Z,3.26
2019-02-02T05:41:10.759Z,3.31
2019-02-02T05:42:10.750Z,3.26
2019-02-02T05:43:10.738Z,3.26
2019-02-02T05:44:10.731Z,3.26
2019-02-02T05:45:10.835Z,3.28
2019-02-02T05:46:10.710Z,3.33
2019-02-02T05:47:10.698Z,3.31
2019-02-02T05:48:10.691Z,3.48
2019-02-02T05:49:10.681Z,3.48
2019-02-02T05:50:10.670Z,3.40
2019-02-02T05:51:10.659Z,3.36
2019-02-02T05:52:10.901Z,3.26
2019-02-02T05:53:10.638Z,3.24
2019-02-02T05:54:10.630Z,3.29
2019-02-02T05:55:10.617Z,3.45
2019-02-02T05:56:10.609Z,3.50
2019-02-02T05:57:10.598Z,3.45
2019-02-02T05:58:10.589Z,3.47
2019-02-02T05:59:10.593Z,3.52
2019-02-02T06:00:10.569Z,3.39
2019-02-02T06:01:10.557Z,3.31
2019-02-02T06:02:10.549Z,3.31
2019-02-02T06:03:10.537Z,3.35
2019-02-02T06:04:10.530Z,3.35
2019-02-02T06:05:10.517Z,3.33
2019-02-02T06:06:10.509Z,3.36
2019-02-02T06:07:10.497Z,3.28
2019-02-02T06:08:10.489Z,3.43
2019-02-02T06:09:10.478Z,3.47
2019-02-02T06:10:10.471Z,3.42
2019-02-02T06:11:10.480Z,3.58
2019-02-02T06:12:10.466Z,3.50
2019-02-02T06:13:10.438Z,3.51
2019-02-02T06:14:10.428Z,3.50
2019-02-02T06:15:10.418Z,3.43
2019-02-02T06:16:10.411Z,3.45
2019-02-02T06:17:10.407Z,3.57
2019-02-02T06:18:10.388Z,3.52
2019-02-02T06:19:10.376Z,3.47
2019-02-02T06:20:10.401Z,3.39
2019-02-02T06:21:10.356Z,3.28
2019-02-02T06:22:10.648Z,3.14
2019-02-02T06:23:10.337Z,3.08
2019-02-02T06:24:10.329Z,2.96
2019-02-02T06:25:10.317Z,3.05
2019-02-02T06:26:10.307Z,2.87
2019-02-02T06:27:10.295Z,3.00
2019-02-02T06:28:10.287Z,3.05
2019-02-02T06:29:10.275Z,3.06
2019-02-02T06:30:10.266Z,3.24
2019-02-02T06:31:10.254Z,3.14
2019-02-02T06:32:11.943Z,3.18
2019-02-02T06:33:10.234Z,3.18
2019-02-02T06:34:10.227Z,3.03
2019-02-02T06:35:10.213Z,3.06
2019-02-02T06:36:10.206Z,3.11
2019-02-02T06:37:10.193Z,3.14
2019-02-02T06:38:10.184Z,3.11
2019-02-02T06:39:10.172Z,3.17
2019-02-02T06:40:10.164Z,3.20
2019-02-02T06:41:10.151Z,3.15
2019-02-02T06:42:10.142Z,3.21
2019-02-02T06:43:10.130Z,3.24
2019-02-02T06:44:10.123Z,3.15
2019-02-02T06:45:10.110Z,3.13
2019-02-02T06:46:10.101Z,3.13
2019-02-02T06:47:10.089Z,3.21
2019-02-02T06:48:10.081Z,3.26
2019-02-02T06:49:10.070Z,3.17
2019-02-02T06:50:10.061Z,3.28
2019-02-02T06:51:10.049Z,3.14
2019-02-02T06:52:10.040Z,3.11
2019-02-02T06:53:10.029Z,3.06
2019-02-02T06:54:10.019Z,3.14
2019-02-02T06:55:10.009Z,3.17
2019-02-02T06:56:09.999Z,3.28
2019-02-02T06:57:09.986Z,3.20
2019-02-02T06:58:10.097Z,3.24
2019-02-02T06:59:09.965Z,3.21
2019-02-02T07:00:16.273Z,3.17
2019-02-02T07:01:09.945Z,3.28
2019-02-02T07:02:09.937Z,3.23
2019-02-02T07:03:09.924Z,3.28
2019-02-02T07:04:09.918Z,3.21
2019-02-02T07:05:10.204Z,3.17
2019-02-02T07:06:09.899Z,3.24
2019-02-02T07:07:09.894Z,3.21
2019-02-02T07:08:09.875Z,3.15
2019-02-02T07:09:09.862Z,3.03
2019-02-02T07:10:09.854Z,2.96
2019-02-02T07:11:09.842Z,2.97
2019-02-02T07:12:09.837Z,3.05
2019-02-02T07:13:09.825Z,2.95
2019-02-02T07:14:09.812Z,2.82
2019-02-02T07:15:09.799Z,2.96
2019-02-02T07:16:09.791Z,2.87
2019-02-02T07:17:09.779Z,2.93
2019-02-02T07:18:09.771Z,2.85
2019-02-02T07:19:09.757Z,2.87
2019-02-02T07:20:09.750Z,2.97
2019-02-02T07:21:09.738Z,3.05
2019-02-02T07:22:09.731Z,3.08
2019-02-02T07:23:09.716Z,3.05
2019-02-02T07:24:09.708Z,3.02
2019-02-02T07:25:09.695Z,3.10
2019-02-02T07:26:09.688Z,2.96
2019-02-02T07:27:09.674Z,3.02
2019-02-02T07:28:09.667Z,2.92
2019-02-02T07:29:09.654Z,2.75
2019-02-02T07:30:09.646Z,2.84
2019-02-02T07:31:09.633Z,2.81
2019-02-02T07:32:09.624Z,2.89
2019-02-02T07:33:09.613Z,2.81
2019-02-02T07:34:09.603Z,2.64
2019-02-02T07:35:09.591Z,2.61
2019-02-02T07:36:09.583Z,2.61
2019-02-02T07:37:09.577Z,2.66
2019-02-02T07:38:09.562Z,2.63
2019-02-02T07:39:09.549Z,2.61
2019-02-02T07:40:09.540Z,2.66
2019-02-02T07:41:09.529Z,2.69
2019-02-02T07:42:09.520Z,2.72
2019-02-02T07:43:09.526Z,2.75
2019-02-02T07:44:09.499Z,2.74
2019-02-02T07:45:09.487Z,2.77
2019-02-02T07:46:15.114Z,2.77
2019-02-02T07:47:09.467Z,2.72
2019-02-02T07:48:09.454Z,2.75
2019-02-02T07:49:09.447Z,2.81
2019-02-02T07:50:09.431Z,2.79
2019-02-02T07:51:09.423Z,2.77
2019-02-02T07:52:09.522Z,2.89
2019-02-02T07:53:09.402Z,3.03
2019-02-02T07:54:09.389Z,2.99
2019-02-02T07:55:09.383Z,2.87
2019-02-02T07:56:09.370Z,2.90
2019-02-02T07:57:09.360Z,2.74
2019-02-02T07:58:09.346Z,2.71
2019-02-02T07:59:09.338Z,2.82
2019-02-02T08:00:09.325Z,2.79
2019-02-02T08:01:09.317Z,2.64
2019-02-02T08:02:09.303Z,2.69
2019-02-02T08:03:09.297Z,2.75
2019-02-02T08:04:09.283Z,2.75
2019-02-02T08:05:09.275Z,2.79
2019-02-02T08:06:09.261Z,2.87
2019-02-02T08:07:09.271Z,2.85
2019-02-02T08:08:09.240Z,2.81
2019-02-02T08:09:09.231Z,2.93
2019-02-02T08:10:09.218Z,2.82
2019-02-02T08:11:09.211Z,2.81
2019-02-02T08:12:09.197Z,2.87
2019-02-02T08:13:09.189Z,2.77
2019-02-02T08:14:11.357Z,2.78
2019-02-02T08:15:09.167Z,2.64
2019-02-02T08:16:09.154Z,2.63
2019-02-02T08:17:09.145Z,2.78
2019-02-02T08:18:09.134Z,2.82
2019-02-02T08:19:09.124Z,2.84
2019-02-02T08:20:09.110Z,2.89
2019-02-02T08:21:09.102Z,3.00
2019-02-02T08:22:09.089Z,2.99
2019-02-02T08:23:09.084Z,2.87
2019-02-02T08:24:09.068Z,2.81
2019-02-02T08:25:09.064Z,2.77
2019-02-02T08:26:09.046Z,2.74
2019-02-02T08:27:09.037Z,2.66
2019-02-02T08:28:09.024Z,2.81
2019-02-02T08:29:09.018Z,2.78
2019-02-02T08:30:09.006Z,2.61
2019-02-02T08:31:08.994Z,2.81
2019-02-02T08:32:08.981Z,2.82
2019-02-02T08:33:08.973Z,2.97
2019-02-02T08:34:08.966Z,3.03
2019-02-02T08:35:08.951Z,3.11
2019-02-02T08:36:08.938Z,3.05
2019-02-02T08:37:08.930Z,2.90
2019-02-02T08:38:08.917Z,2.74
2019-02-02T08:39:08.908Z,2.79
2019-02-02T08:40:08.895Z,2.74
2019-02-02T08:41:08.888Z,2.71
2019-02-02T08:42:08.874Z,2.72
2019-02-02T08:43:08.865Z,2.84
2019-02-02T08:44:08.853Z,2.85
2019-02-02T08:45:08.846Z,2.67
2019-02-02T08:46:08.830Z,2.67
2019-02-02T08:47:08.821Z,2.74
2019-02-02T08:48:08.809Z,2.71
2019-02-02T08:49:08.800Z,2.87
2019-02-02T08:50:08.787Z,2.81
2019-02-02T08:51:08.778Z,2.89
2019-02-02T08:52:08.765Z,2.81
2019-02-02T08:53:08.785Z,2.87
2019-02-02T08:54:08.744Z,2.99
2019-02-02T08:55:08.735Z,2.92
2019-02-02T08:56:08.738Z,2.90
2019-02-02T08:57:08.714Z,2.82
2019-02-02T08:58:08.701Z,2.74
2019-02-02T08:59:08.691Z,2.77
2019-02-02T09:00:08.680Z,2.75
2019-02-02T09:01:08.672Z,2.82
2019-02-02T09:02:08.660Z,2.89
2019-02-02T09:03:08.661Z,2.90
2019-02-02T09:04:08.953Z,2.81
2019-02-02T09:05:08.662Z,2.79
2019-02-02T09:06:08.632Z,2.72
2019-02-02T09:07:08.605Z,2.81
2019-02-02T09:08:08.602Z,2.90
2019-02-02T09:09:08.585Z,2.85
2019-02-02T09:10:08.572Z,2.82
2019-02-02T09:11:08.562Z,2.96
2019-02-02T09:12:08.549Z,2.99
2019-02-02T09:13:08.541Z,2.87
2019-02-02T09:14:08.528Z,2.96
2019-02-02T09:15:08.519Z,3.05
2019-02-02T09:16:08.506Z,2.96
2019-02-02T09:17:08.499Z,3.03
2019-02-02T09:18:08.484Z,2.84
2019-02-02T09:19:08.476Z,2.93
2019-02-02T09:20:08.468Z,2.92
2019-02-02T09:21:08.456Z,3.05
2019-02-02T09:22:08.442Z,2.92
2019-02-02T09:23:08.434Z,2.93
2019-02-02T09:24:08.422Z,2.84
2019-02-02T09:25:08.415Z,2.89
2019-02-02T09:26:08.400Z,2.85
2019-02-02T09:27:08.391Z,2.93
2019-02-02T09:28:08.430Z,3.06
2019-02-02T09:29:10.382Z,3.06
2019-02-02T09:30:08.357Z,3.02
2019-02-02T09:31:15.525Z,3.02
2019-02-02T09:32:08.338Z,3.11
2019-02-02T09:33:08.328Z,2.89
2019-02-02T09:34:08.566Z,2.81
2019-02-02T09:35:08.307Z,2.93
2019-02-02T09:36:08.294Z,3.00
2019-02-02T09:37:08.287Z,2.90
2019-02-02T09:38:08.272Z,3.05
2019-02-02T09:39:08.265Z,3.03
2019-02-02T09:40:08.253Z,2.96
2019-02-02T09:41:08.244Z,3.03
2019-02-02T09:42:08.230Z,3.06
2019-02-02T09:43:08.222Z,3.03
2019-02-02T09:44:08.209Z,3.03
2019-02-02T09:45:08.201Z,3.06
2019-02-02T09:46:08.191Z,3.06
2019-02-02T09:47:08.180Z,3.02
2019-02-02T09:48:08.168Z,3.08
2019-02-02T09:49:08.161Z,3.14
2019-02-02T09:50:08.162Z,3.15
2019-02-02T09:51:08.138Z,3.08
2019-02-02T09:52:08.129Z,2.87
2019-02-02T09:53:08.122Z,2.89
2019-02-02T09:54:09.195Z,2.89
2019-02-02T09:55:08.097Z,2.89
2019-02-02T09:56:08.084Z,2.90
2019-02-02T09:57:08.075Z,2.75
2019-02-02T09:58:08.785Z,2.89
2019-02-02T09:59:09.838Z,2.85
2019-02-02T10:00:08.041Z,2.96
2019-02-02T10:01:08.033Z,2.96
2019-02-02T10:02:08.021Z,3.05
2019-02-02T10:03:08.011Z,3.10
2019-02-02T10:04:08.002Z,3.15
2019-02-02T10:05:07.991Z,3.17
2019-02-02T10:06:07.978Z,3.18
2019-02-02T10:07:07.969Z,3.06
2019-02-02T10:08:07.957Z,3.03
2019-02-02T10:09:07.949Z,3.00
2019-02-02T10:10:07.940Z,3.02
2019-02-02T10:11:07.930Z,3.00
2019-02-02T10:12:07.914Z,3.15
2019-02-02T10:13:07.909Z,3.14
2019-02-02T10:14:07.893Z,3.24
2019-02-02T10:15:07.885Z,3.18
2019-02-02T10:16:07.873Z,3.28
2019-02-02T10:17:07.868Z,3.32
2019-02-02T10:18:07.852Z,3.23
2019-02-02T10:19:07.842Z,3.17
2019-02-02T10:20:07.830Z,3.02
2019-02-02T10:21:07.825Z,3.10
2019-02-02T10:22:07.809Z,3.08
2019-02-02T10:23:07.801Z,3.05
2019-02-02T10:24:07.788Z,3.00
2019-02-02T10:25:07.780Z,2.89
2019-02-02T10:26:07.767Z,2.90
2019-02-02T10:27:07.759Z,2.84
2019-02-02T10:28:07.755Z,2.96
2019-02-02T10:29:07.738Z,3.00
2019-02-02T10:30:07.725Z,3.14
2019-02-02T10:31:07.717Z,3.13
2019-02-02T10:32:07.704Z,3.08
2019-02-02T10:33:07.703Z,3.03
2019-02-02T10:34:07.983Z,2.87
2019-02-02T10:35:07.674Z,2.92
2019-02-02T10:36:07.663Z,2.89
2019-02-02T10:37:07.654Z,2.95
2019-02-02T10:38:07.640Z,3.08
2019-02-02T10:39:07.636Z,3.11
2019-02-02T10:40:07.620Z,3.23
2019-02-02T10:41:07.611Z,3.13
2019-02-02T10:42:07.599Z,3.18
2019-02-02T10:43:07.589Z,3.20
2019-02-02T10:44:07.577Z,3.14
2019-02-02T10:45:07.568Z,3.02
2019-02-02T10:46:10.641Z,3.00
2019-02-02T10:47:07.547Z,3.03
2019-02-02T10:48:07.534Z,3.06
2019-02-02T10:49:07.526Z,3.06
2019-02-02T10:50:07.514Z,3.10
2019-02-02T10:51:07.509Z,3.18
2019-02-02T10:52:07.492Z,3.24
2019-02-02T10:53:07.484Z,3.32
2019-02-02T10:54:07.470Z,3.50
2019-02-02T10:55:07.464Z,3.43
2019-02-02T10:56:07.451Z,3.55
2019-02-02T10:57:07.443Z,3.50
2019-02-02T10:58:07.433Z,3.65
2019-02-02T10:59:07.421Z,3.60
2019-02-02T11:00:07.411Z,3.66
2019-02-02T11:01:07.552Z,3.68
2019-02-02T11:02:08.144Z,3.57
2019-02-02T11:03:07.385Z,3.50
2019-02-02T11:04:07.378Z,3.57
2019-02-02T11:05:07.486Z,3.43
2019-02-02T11:06:07.372Z,3.57
2019-02-02T11:07:07.364Z,3.57
2019-02-02T11:08:07.331Z,3.43
2019-02-02T11:09:07.457Z,3.35
2019-02-02T11:10:07.362Z,3.24
2019-02-02T11:11:07.493Z,3.28
2019-02-02T11:12:07.300Z,3.35
2019-02-02T11:13:07.407Z,3.40
2019-02-02T11:14:07.374Z,3.32
2019-02-02T11:15:07.294Z,3.35
2019-02-02T11:16:08.443Z,3.45
2019-02-02T11:17:07.239Z,3.28
2019-02-02T11:18:07.257Z,3.14
2019-02-02T11:19:07.373Z,3.08
2019-02-02T11:20:07.258Z,2.97
2019-02-02T11:21:07.362Z,2.89
2019-02-02T11:22:07.268Z,3.08
2019-02-02T11:23:07.241Z,3.02
2019-02-02T11:24:07.206Z,3.00
2019-02-02T11:25:07.157Z,3.03
2019-02-02T11:26:07.172Z,2.89
2019-02-02T11:27:07.186Z,2.89
2019-02-02T11:28:07.267Z,3.08
2019-02-02T11:29:07.223Z,3.08
2019-02-02T11:30:07.247Z,3.03
2019-02-02T11:31:07.093Z,3.06
2019-02-02T11:32:07.081Z,2.93
2019-02-02T11:33:07.075Z,3.06
2019-02-02T11:34:07.059Z,2.95
2019-02-02T11:35:07.053Z,2.87
2019-02-02T11:36:07.039Z,2.89
2019-02-02T11:37:07.031Z,2.84
2019-02-02T11:38:07.017Z,2.89
2019-02-02T11:39:07.010Z,2.77
2019-02-02T11:40:06.997Z,2.87
2019-02-02T11:41:06.988Z,2.92
2019-02-02T11:42:06.976Z,2.99
2019-02-02T11:43:06.969Z,3.11
2019-02-02T11:44:06.954Z,2.93
2019-02-02T11:45:06.946Z,2.99
2019-02-02T11:46:06.932Z,2.87
2019-02-02T11:47:06.924Z,2.93
2019-02-02T11:48:06.912Z,2.81
2019-02-02T11:49:06.903Z,2.89
2019-02-02T11:50:06.890Z,2.90
2019-02-02T11:51:06.881Z,2.84
2019-02-02T11:52:06.868Z,2.96
2019-02-02T11:53:06.860Z,2.85
2019-02-02T11:54:06.855Z,2.99
2019-02-02T11:55:06.838Z,2.96
2019-02-02T11:56:06.832Z,2.96
2019-02-02T11:57:06.821Z,2.89
2019-02-02T11:58:06.806Z,2.90
2019-02-02T11:59:06.804Z,2.87
2019-02-02T12:00:06.782Z,2.93
2019-02-02T12:01:06.779Z,3.03
2019-02-02T12:02:14.370Z,2.95
2019-02-02T12:03:06.750Z,2.99
2019-02-02T12:04:06.741Z,3.08
2019-02-02T12:05:06.728Z,3.03
2019-02-02T12:06:06.719Z,3.02
2019-02-02T12:07:06.712Z,3.10
2019-02-02T12:08:06.699Z,3.14
2019-02-02T12:09:06.685Z,3.11
2019-02-02T12:10:06.676Z,3.21
2019-02-02T12:11:06.663Z,3.14
2019-02-02T12:12:06.654Z,3.14
2019-02-02T12:13:06.740Z,3.17
2019-02-02T12:14:06.634Z,3.14
2019-02-02T12:15:06.621Z,3.21
2019-02-02T12:16:06.612Z,3.11
2019-02-02T12:17:06.599Z,3.13
2019-02-02T12:18:06.591Z,3.17
2019-02-02T12:19:06.578Z,3.06
2019-02-02T12:20:06.573Z,2.95
2019-02-02T12:21:06.560Z,3.02
2019-02-02T12:22:06.549Z,3.08
2019-02-02T12:23:06.538Z,3.13
2019-02-02T12:24:14.377Z,3.05
2019-02-02T12:25:06.514Z,3.02
2019-02-02T12:26:06.505Z,3.14
2019-02-02T12:27:06.492Z,3.08
2019-02-02T12:28:09.104Z,3.00
2019-02-02T12:29:06.471Z,2.85
2019-02-02T12:30:06.463Z,2.82
2019-02-02T12:31:06.450Z,2.89
2019-02-02T12:32:06.444Z,2.87
2019-02-02T12:33:06.433Z,2.90
2019-02-02T12:34:06.420Z,2.92
2019-02-02T12:35:06.407Z,2.92
2019-02-02T12:36:06.399Z,2.96
2019-02-02T12:37:06.387Z,2.96
2019-02-02T12:38:06.377Z,2.85
2019-02-02T12:39:06.364Z,2.81
2019-02-02T12:40:06.357Z,2.92
2019-02-02T12:41:06.344Z,2.89
2019-02-02T12:42:06.334Z,2.92
2019-02-02T12:43:06.338Z,2.89
2019-02-02T12:44:06.313Z,2.92
2019-02-02T12:45:06.300Z,2.84
2019-02-02T12:46:06.292Z,2.67
2019-02-02T12:47:06.278Z,2.67
2019-02-02T12:48:06.272Z,2.74
2019-02-02T12:49:06.258Z,2.67
2019-02-02T12:50:06.248Z,2.79
2019-02-02T12:51:06.237Z,2.77
2019-02-02T12:52:06.228Z,2.84
2019-02-02T12:53:06.215Z,2.78
2019-02-02T12:54:06.221Z,2.87
2019-02-02T12:55:06.220Z,2.74
2019-02-02T12:56:06.185Z,2.74
2019-02-02T12:57:06.241Z,2.75
2019-02-02T12:58:06.164Z,2.75
2019-02-02T12:59:06.149Z,2.77
2019-02-02T13:00:06.142Z,2.67
2019-02-02T13:01:06.128Z,2.67
2019-02-02T13:02:06.119Z,2.77
2019-02-02T13:03:06.106Z,2.72
2019-02-02T13:04:06.098Z,2.66
2019-02-02T13:05:06.085Z,2.66
2019-02-02T13:06:06.076Z,2.66
2019-02-02T13:07:06.063Z,2.61
2019-02-02T13:08:06.055Z,2.61
2019-02-02T13:09:06.042Z,2.53
2019-02-02T13:10:06.035Z,2.60
2019-02-02T13:11:06.020Z,2.54
2019-02-02T13:12:06.012Z,2.57
2019-02-02T13:13:06.000Z,2.57
2019-02-02T13:14:05.989Z,2.61
2019-02-02T13:15:05.976Z,2.60
2019-02-02T13:16:05.980Z,2.69
2019-02-02T13:17:05.956Z,2.77
2019-02-02T13:18:05.951Z,2.87